An Run Da 2 — BHNX — position and weather

sailwx.info

Track history (hours):
 
Tides and Currents Weather Stations Pressure Air Temp Water Temp Dewpoint Dewpoint Depression Visibility Wind Speed Wind Dir Waves Ship Positions

An Run Da 2

Last reported at 2016-Apr-29 04:28 UTC. Time now 2016-Apr-29 06:02 UTC.
Position N 25°60' E 119°29'.

Length 147 m; draft 8.4 m.

Type: Cargo ship. MMSI: 413360230.

Date/timePositionNaut miles runAvg speedWind from/ knotsBaromVisibWave heightAir tempDewpointWater temp
2016-Apr-29 04:28N 25°60' E 119°29'0 0.0
2016-Apr-29 03:28N 25°60' E 119°29'0 0.0
2016-Apr-29 01:16N 25°60' E 119°29'0 0.0
2016-Apr-29 00:16N 25°60' E 119°29'0 0.0
2016-Apr-28 23:16N 25°60' E 119°29'0 0.0
2016-Apr-28 22:28N 25°60' E 119°29'0 0.0
2016-Apr-28 21:28N 25°60' E 119°29'0 0.0
2016-Apr-28 20:28N 25°60' E 119°29'0 0.0
2016-Apr-28 19:24N 25°60' E 119°29'0 0.0
2016-Apr-28 18:30N 25°60' E 119°29'0 0.0
2016-Apr-28 17:24N 25°60' E 119°29'0 0.0
2016-Apr-28 16:30N 25°60' E 119°29'0 0.0
2016-Apr-28 14:30N 25°60' E 119°29'0 0.0
2016-Apr-28 12:18N 25°60' E 119°29'0 0.0
2016-Apr-28 11:24N 25°60' E 119°29'0 0.0
2016-Apr-28 10:30N 25°60' E 119°29'0 0.0
2016-Apr-28 06:12N 25°60' E 119°29'0 0.0
2016-Apr-28 05:18N 25°60' E 119°29'0 0.0
2016-Apr-28 01:18N 25°60' E 119°29'0 0.0
2016-Apr-28 00:12N 25°60' E 119°29'0 0.0
2016-Apr-27 23:30N 25°60' E 119°29'0 0.0
2016-Apr-27 22:18N 25°60' E 119°29'0 0.0
2016-Apr-27 21:30N 25°60' E 119°29'0 0.0
2016-Apr-27 20:24N 25°60' E 119°29'0 0.0
2016-Apr-27 19:30N 25°60' E 119°29'0 0.0
2016-Apr-27 18:30N 25°60' E 119°29'0 0.0
2016-Apr-27 17:18N 25°60' E 119°29'0 0.0
2016-Apr-27 16:30N 25°60' E 119°29'0 0.0
2016-Apr-27 15:30N 25°60' E 119°29'0 0.0
2016-Apr-27 14:30N 25°60' E 119°29'0 0.0
2016-Apr-27 13:18N 25°60' E 119°29'0 0.0
2016-Apr-27 12:30N 25°60' E 119°29'0 0.0
2016-Apr-27 11:24N 25°60' E 119°29'0 0.0
2016-Apr-27 10:30N 25°60' E 119°29'0 0.0
2016-Apr-27 09:24N 25°60' E 119°29'0 0.0
2016-Apr-27 08:30N 25°60' E 119°29'0 0.0
2016-Apr-27 07:18N 25°60' E 119°29'0 0.0
2016-Apr-27 06:28N 25°60' E 119°29'0 0.3
2016-Apr-27 05:33N 26°00' E 119°29'7 7.0
2016-Apr-27 04:32N 26°06' E 119°33'319 6.8
2016-Apr-25 05:33N 30°32' E 122°53'376 9.5
2016-Apr-23 14:08N 36°48' E 122°49'7 9.8
2016-Apr-23 13:23N 36°56' E 122°48'8 9.1
2016-Apr-23 12:30N 37°04' E 122°47'16 8.2
2016-Apr-23 10:33N 37°20' E 122°46'8 7.9
2016-Apr-23 09:33N 37°27' E 122°45'9 8.6
2016-Apr-23 08:33N 37°33' E 122°37'10 9.5
2016-Apr-23 07:33N 37°36' E 122°26'1110.1
2016-Apr-23 06:30N 37°39' E 122°13'32 9.7
2016-Apr-23 03:12N 37°49' E 121°34'16 9.5
2016-Apr-23 01:33N 37°54' E 121°16'1010.0
2016-Apr-23 00:33N 37°57' E 121°03'1010.5
2016-Apr-22 23:33N 37°59' E 120°50'1111.2
2016-Apr-22 22:33N 38°01' E 120°36'1110.6
2016-Apr-22 21:33N 38°04' E 120°24'1010.1
2016-Apr-22 20:33N 38°08' E 120°12'10 9.6
2016-Apr-22 19:33N 38°13' E 120°01'9 9.4
2016-Apr-22 18:33N 38°17' E 119°51'  
Track history (hours):
 
Tides and Currents Weather Stations Pressure Air Temp Water Temp Dewpoint Dewpoint Depression Visibility Wind Speed Wind Dir Waves Ship Positions

An Run Da 2

Last reported at 2016-Apr-29 04:28 UTC. Time now 2016-Apr-29 06:02 UTC.
Position N 25°60' E 119°29'.

Length 147 m; draft 8.4 m.

Type: Cargo ship. MMSI: 413360230.

Date/timePositionNaut miles runAvg speedWind from/ knotsBaromVisibWave heightAir tempDewpointWater temp
2016-Apr-29 04:28N 25°60' E 119°29'0 0.0
2016-Apr-29 03:28N 25°60' E 119°29'0 0.0
2016-Apr-29 01:16N 25°60' E 119°29'0 0.0
2016-Apr-29 00:16N 25°60' E 119°29'0 0.0
2016-Apr-28 23:16N 25°60' E 119°29'0 0.0
2016-Apr-28 22:28N 25°60' E 119°29'0 0.0
2016-Apr-28 21:28N 25°60' E 119°29'0 0.0
2016-Apr-28 20:28N 25°60' E 119°29'0 0.0
2016-Apr-28 19:24N 25°60' E 119°29'0 0.0
2016-Apr-28 18:30N 25°60' E 119°29'0 0.0
2016-Apr-28 17:24N 25°60' E 119°29'0 0.0
2016-Apr-28 16:30N 25°60' E 119°29'0 0.0
2016-Apr-28 14:30N 25°60' E 119°29'0 0.0
2016-Apr-28 12:18N 25°60' E 119°29'0 0.0
2016-Apr-28 11:24N 25°60' E 119°29'0 0.0
2016-Apr-28 10:30N 25°60' E 119°29'0 0.0
2016-Apr-28 06:12N 25°60' E 119°29'0 0.0
2016-Apr-28 05:18N 25°60' E 119°29'0 0.0
2016-Apr-28 01:18N 25°60' E 119°29'0 0.0
2016-Apr-28 00:12N 25°60' E 119°29'0 0.0
2016-Apr-27 23:30N 25°60' E 119°29'0 0.0
2016-Apr-27 22:18N 25°60' E 119°29'0 0.0
2016-Apr-27 21:30N 25°60' E 119°29'0 0.0
2016-Apr-27 20:24N 25°60' E 119°29'0 0.0
2016-Apr-27 19:30N 25°60' E 119°29'0 0.0
2016-Apr-27 18:30N 25°60' E 119°29'0 0.0
2016-Apr-27 17:18N 25°60' E 119°29'0 0.0
2016-Apr-27 16:30N 25°60' E 119°29'0 0.0
2016-Apr-27 15:30N 25°60' E 119°29'0 0.0
2016-Apr-27 14:30N 25°60' E 119°29'0 0.0
2016-Apr-27 13:18N 25°60' E 119°29'0 0.0
2016-Apr-27 12:30N 25°60' E 119°29'0 0.0
2016-Apr-27 11:24N 25°60' E 119°29'0 0.0
2016-Apr-27 10:30N 25°60' E 119°29'0 0.0
2016-Apr-27 09:24N 25°60' E 119°29'0 0.0
2016-Apr-27 08:30N 25°60' E 119°29'0 0.0
2016-Apr-27 07:18N 25°60' E 119°29'0 0.0
2016-Apr-27 06:28N 25°60' E 119°29'0 0.3
2016-Apr-27 05:33N 26°00' E 119°29'7 7.0
2016-Apr-27 04:32N 26°06' E 119°33'319 6.8
2016-Apr-25 05:33N 30°32' E 122°53'376 9.5
2016-Apr-23 14:08N 36°48' E 122°49'7 9.8
2016-Apr-23 13:23N 36°56' E 122°48'8 9.1
2016-Apr-23 12:30N 37°04' E 122°47'16 8.2
2016-Apr-23 10:33N 37°20' E 122°46'8 7.9
2016-Apr-23 09:33N 37°27' E 122°45'9 8.6
2016-Apr-23 08:33N 37°33' E 122°37'10 9.5
2016-Apr-23 07:33N 37°36' E 122°26'1110.1
2016-Apr-23 06:30N 37°39' E 122°13'32 9.7
2016-Apr-23 03:12N 37°49' E 121°34'16 9.5
2016-Apr-23 01:33N 37°54' E 121°16'1010.0
2016-Apr-23 00:33N 37°57' E 121°03'1010.5
2016-Apr-22 23:33N 37°59' E 120°50'1111.2
2016-Apr-22 22:33N 38°01' E 120°36'1110.6
2016-Apr-22 21:33N 38°04' E 120°24'1010.1
2016-Apr-22 20:33N 38°08' E 120°12'10 9.6
2016-Apr-22 19:33N 38°13' E 120°01'9 9.4
2016-Apr-22 18:33N 38°17' E 119°51'  

Dump ship's entire track history